sensor_id;sensor_type;location;lat;lon;timestamp;P1;durP1;ratioP1;P2;durP2;ratioP2
6723;SDS011;3399;52.530;13.304;2023-12-22T00:01:05;5.37;;;1.77;;
6723;SDS011;3399;52.530;13.304;2023-12-22T00:03:30;9.43;;;2.33;;
6723;SDS011;3399;52.530;13.304;2023-12-22T00:05:56;7.73;;;2.70;;
6723;SDS011;3399;52.530;13.304;2023-12-22T00:08:21;5.97;;;2.03;;
6723;SDS011;3399;52.530;13.304;2023-12-22T00:10:48;5.87;;;2.50;;
6723;SDS011;3399;52.530;13.304;2023-12-22T00:13:14;3.60;;;1.70;;
6723;SDS011;3399;52.530;13.304;2023-12-22T00:15:39;5.33;;;1.97;;
6723;SDS011;3399;52.530;13.304;2023-12-22T00:18:05;6.70;;;2.07;;
6723;SDS011;3399;52.530;13.304;2023-12-22T00:20:31;9.10;;;2.30;;
6723;SDS011;3399;52.530;13.304;2023-12-22T00:22:56;4.53;;;2.10;;
6723;SDS011;3399;52.530;13.304;2023-12-22T00:25:22;9.10;;;2.90;;
6723;SDS011;3399;52.530;13.304;2023-12-22T00:27:47;9.27;;;1.93;;
6723;SDS011;3399;52.530;13.304;2023-12-22T00:30:13;6.50;;;2.60;;
6723;SDS011;3399;52.530;13.304;2023-12-22T00:32:39;7.63;;;2.67;;
6723;SDS011;3399;52.530;13.304;2023-12-22T00:35:04;15.13;;;3.10;;
6723;SDS011;3399;52.530;13.304;2023-12-22T00:37:30;10.37;;;2.80;;
6723;SDS011;3399;52.530;13.304;2023-12-22T00:39:55;11.40;;;2.80;;
6723;SDS011;3399;52.530;13.304;2023-12-22T00:42:21;10.00;;;2.57;;
6723;SDS011;3399;52.530;13.304;2023-12-22T00:44:46;11.70;;;3.43;;
6723;SDS011;3399;52.530;13.304;2023-12-22T00:47:12;10.50;;;2.43;;
6723;SDS011;3399;52.530;13.304;2023-12-22T00:49:38;8.63;;;3.00;;
6723;SDS011;3399;52.530;13.304;2023-12-22T00:52:03;8.57;;;2.20;;
6723;SDS011;3399;52.530;13.304;2023-12-22T00:54:29;8.93;;;2.40;;
6723;SDS011;3399;52.530;13.304;2023-12-22T00:56:56;9.80;;;2.80;;
6723;SDS011;3399;52.530;13.304;2023-12-22T00:59:22;9.60;;;2.70;;
6723;SDS011;3399;52.530;13.304;2023-12-22T01:01:48;9.37;;;2.27;;
6723;SDS011;3399;52.530;13.304;2023-12-22T01:04:14;8.93;;;2.60;;
6723;SDS011;3399;52.530;13.304;2023-12-22T01:06:40;10.70;;;3.33;;
6723;SDS011;3399;52.530;13.304;2023-12-22T01:09:05;6.10;;;2.60;;
6723;SDS011;3399;52.530;13.304;2023-12-22T01:11:31;10.80;;;2.07;;
6723;SDS011;3399;52.530;13.304;2023-12-22T01:13:57;6.53;;;2.40;;
6723;SDS011;3399;52.530;13.304;2023-12-22T01:16:22;9.67;;;2.57;;
6723;SDS011;3399;52.530;13.304;2023-12-22T01:18:48;10.53;;;2.10;;
6723;SDS011;3399;52.530;13.304;2023-12-22T01:21:15;10.37;;;2.53;;
6723;SDS011;3399;52.530;13.304;2023-12-22T01:23:41;10.43;;;3.40;;
6723;SDS011;3399;52.530;13.304;2023-12-22T01:26:06;7.70;;;2.53;;
6723;SDS011;3399;52.530;13.304;2023-12-22T01:28:33;12.77;;;3.50;;
6723;SDS011;3399;52.530;13.304;2023-12-22T01:30:58;7.60;;;2.83;;
6723;SDS011;3399;52.530;13.304;2023-12-22T01:33:26;7.83;;;2.10;;
6723;SDS011;3399;52.530;13.304;2023-12-22T01:35:52;8.43;;;2.50;;
6723;SDS011;3399;52.530;13.304;2023-12-22T01:38:17;11.87;;;3.37;;
6723;SDS011;3399;52.530;13.304;2023-12-22T01:40:43;8.80;;;2.50;;
6723;SDS011;3399;52.530;13.304;2023-12-22T01:43:09;10.50;;;2.30;;
6723;SDS011;3399;52.530;13.304;2023-12-22T01:45:34;4.10;;;2.60;;
6723;SDS011;3399;52.530;13.304;2023-12-22T01:48:00;7.10;;;2.97;;
6723;SDS011;3399;52.530;13.304;2023-12-22T01:50:27;10.90;;;2.30;;
6723;SDS011;3399;52.530;13.304;2023-12-22T01:52:53;7.07;;;2.33;;
6723;SDS011;3399;52.530;13.304;2023-12-22T01:55:20;8.30;;;2.57;;
6723;SDS011;3399;52.530;13.304;2023-12-22T01:57:46;7.33;;;2.23;;
6723;SDS011;3399;52.530;13.304;2023-12-22T02:00:12;11.83;;;3.07;;
6723;SDS011;3399;52.530;13.304;2023-12-22T02:02:38;6.40;;;2.93;;
6723;SDS011;3399;52.530;13.304;2023-12-22T02:05:05;11.93;;;2.83;;
6723;SDS011;3399;52.530;13.304;2023-12-22T02:07:34;14.43;;;3.43;;
6723;SDS011;3399;52.530;13.304;2023-12-22T02:09:59;5.90;;;2.73;;
6723;SDS011;3399;52.530;13.304;2023-12-22T02:12:25;9.00;;;2.27;;
6723;SDS011;3399;52.530;13.304;2023-12-22T02:14:51;15.60;;;2.93;;
6723;SDS011;3399;52.530;13.304;2023-12-22T02:17:24;13.00;;;3.17;;
6723;SDS011;3399;52.530;13.304;2023-12-22T02:19:57;9.03;;;2.70;;
6723;SDS011;3399;52.530;13.304;2023-12-22T02:22:23;4.57;;;2.47;;
6723;SDS011;3399;52.530;13.304;2023-12-22T02:24:49;10.33;;;2.67;;
6723;SDS011;3399;52.530;13.304;2023-12-22T02:32:31;5.27;;;2.53;;
6723;SDS011;3399;52.530;13.304;2023-12-22T02:35:00;9.17;;;3.00;;
6723;SDS011;3399;52.530;13.304;2023-12-22T02:37:30;9.53;;;2.40;;
6723;SDS011;3399;52.530;13.304;2023-12-22T02:39:57;5.30;;;2.10;;
6723;SDS011;3399;52.530;13.304;2023-12-22T02:42:24;7.63;;;2.90;;
6723;SDS011;3399;52.530;13.304;2023-12-22T02:44:55;7.57;;;2.07;;
6723;SDS011;3399;52.530;13.304;2023-12-22T02:47:22;14.77;;;2.47;;
6723;SDS011;3399;52.530;13.304;2023-12-22T02:49:47;8.07;;;2.87;;
6723;SDS011;3399;52.530;13.304;2023-12-22T02:52:13;7.53;;;1.97;;
6723;SDS011;3399;52.530;13.304;2023-12-22T02:54:38;7.80;;;1.77;;
6723;SDS011;3399;52.530;13.304;2023-12-22T02:57:05;5.73;;;2.20;;
6723;SDS011;3399;52.530;13.304;2023-12-22T02:59:33;4.90;;;2.00;;
6723;SDS011;3399;52.530;13.304;2023-12-22T03:01:59;7.33;;;1.90;;
6723;SDS011;3399;52.530;13.304;2023-12-22T03:04:24;7.20;;;1.90;;
6723;SDS011;3399;52.530;13.304;2023-12-22T03:06:50;5.53;;;2.17;;
6723;SDS011;3399;52.530;13.304;2023-12-22T03:09:15;7.83;;;2.13;;
6723;SDS011;3399;52.530;13.304;2023-12-22T03:11:41;5.90;;;1.80;;
6723;SDS011;3399;52.530;13.304;2023-12-22T03:14:06;4.63;;;1.73;;
6723;SDS011;3399;52.530;13.304;2023-12-22T03:16:32;5.03;;;1.53;;
6723;SDS011;3399;52.530;13.304;2023-12-22T03:18:58;3.93;;;2.00;;
6723;SDS011;3399;52.530;13.304;2023-12-22T03:21:23;6.67;;;1.67;;
6723;SDS011;3399;52.530;13.304;2023-12-22T03:23:49;2.93;;;1.50;;
6723;SDS011;3399;52.530;13.304;2023-12-22T03:26:14;7.83;;;2.23;;
6723;SDS011;3399;52.530;13.304;2023-12-22T03:28:40;3.87;;;1.97;;
6723;SDS011;3399;52.530;13.304;2023-12-22T03:31:05;6.57;;;1.70;;
6723;SDS011;3399;52.530;13.304;2023-12-22T03:33:31;3.40;;;1.50;;
6723;SDS011;3399;52.530;13.304;2023-12-22T03:35:57;4.87;;;1.87;;
6723;SDS011;3399;52.530;13.304;2023-12-22T03:38:23;4.57;;;2.67;;
6723;SDS011;3399;52.530;13.304;2023-12-22T03:40:48;9.90;;;2.23;;
6723;SDS011;3399;52.530;13.304;2023-12-22T03:43:14;4.93;;;1.63;;
6723;SDS011;3399;52.530;13.304;2023-12-22T03:45:39;5.00;;;2.03;;
6723;SDS011;3399;52.530;13.304;2023-12-22T03:48:05;4.27;;;1.77;;
6723;SDS011;3399;52.530;13.304;2023-12-22T03:50:31;4.97;;;2.13;;
6723;SDS011;3399;52.530;13.304;2023-12-22T03:52:56;4.87;;;1.83;;
6723;SDS011;3399;52.530;13.304;2023-12-22T03:55:21;5.10;;;1.57;;
6723;SDS011;3399;52.530;13.304;2023-12-22T03:57:47;6.13;;;1.90;;
6723;SDS011;3399;52.530;13.304;2023-12-22T04:00:13;1.80;;;1.27;;
6723;SDS011;3399;52.530;13.304;2023-12-22T04:02:39;6.27;;;1.60;;
6723;SDS011;3399;52.530;13.304;2023-12-22T04:05:05;3.43;;;1.03;;
6723;SDS011;3399;52.530;13.304;2023-12-22T04:07:30;2.90;;;1.50;;
6723;SDS011;3399;52.530;13.304;2023-12-22T04:09:56;1.50;;;1.10;;
6723;SDS011;3399;52.530;13.304;2023-12-22T04:12:21;2.13;;;0.77;;
6723;SDS011;3399;52.530;13.304;2023-12-22T04:14:47;1.30;;;1.10;;
6723;SDS011;3399;52.530;13.304;2023-12-22T04:17:12;2.07;;;1.07;;
6723;SDS011;3399;52.530;13.304;2023-12-22T04:19:38;5.13;;;1.40;;
6723;SDS011;3399;52.530;13.304;2023-12-22T04:22:03;1.10;;;0.90;;
6723;SDS011;3399;52.530;13.304;2023-12-22T04:24:29;1.27;;;0.67;;
6723;SDS011;3399;52.530;13.304;2023-12-22T04:26:54;2.37;;;0.73;;
6723;SDS011;3399;52.530;13.304;2023-12-22T04:29:20;4.03;;;0.97;;
6723;SDS011;3399;52.530;13.304;2023-12-22T04:31:45;2.23;;;1.10;;
6723;SDS011;3399;52.530;13.304;2023-12-22T04:34:14;5.10;;;1.53;;
6723;SDS011;3399;52.530;13.304;2023-12-22T04:36:40;9.10;;;1.70;;
6723;SDS011;3399;52.530;13.304;2023-12-22T04:39:06;1.80;;;1.20;;
6723;SDS011;3399;52.530;13.304;2023-12-22T04:41:32;4.77;;;2.30;;
6723;SDS011;3399;52.530;13.304;2023-12-22T04:43:57;8.23;;;2.37;;
6723;SDS011;3399;52.530;13.304;2023-12-22T04:46:23;1.27;;;0.93;;
6723;SDS011;3399;52.530;13.304;2023-12-22T04:48:48;3.50;;;1.30;;
6723;SDS011;3399;52.530;13.304;2023-12-22T04:51:14;3.60;;;1.00;;
6723;SDS011;3399;52.530;13.304;2023-12-22T04:53:39;4.30;;;1.67;;
6723;SDS011;3399;52.530;13.304;2023-12-22T04:56:05;7.37;;;1.63;;
6723;SDS011;3399;52.530;13.304;2023-12-22T04:58:31;2.57;;;1.20;;
6723;SDS011;3399;52.530;13.304;2023-12-22T05:00:58;7.03;;;1.27;;
6723;SDS011;3399;52.530;13.304;2023-12-22T05:03:24;4.93;;;1.60;;
6723;SDS011;3399;52.530;13.304;2023-12-22T05:05:50;2.33;;;1.73;;
6723;SDS011;3399;52.530;13.304;2023-12-22T05:08:15;1.93;;;1.20;;
6723;SDS011;3399;52.530;13.304;2023-12-22T05:10:41;3.00;;;1.30;;
6723;SDS011;3399;52.530;13.304;2023-12-22T05:13:06;2.63;;;1.00;;
6723;SDS011;3399;52.530;13.304;2023-12-22T05:15:32;6.57;;;1.20;;
6723;SDS011;3399;52.530;13.304;2023-12-22T05:17:57;3.83;;;0.90;;
6723;SDS011;3399;52.530;13.304;2023-12-22T05:20:23;2.73;;;1.50;;
6723;SDS011;3399;52.530;13.304;2023-12-22T05:22:49;6.97;;;1.53;;
6723;SDS011;3399;52.530;13.304;2023-12-22T05:25:14;4.13;;;1.60;;
6723;SDS011;3399;52.530;13.304;2023-12-22T05:27:39;3.80;;;1.23;;
6723;SDS011;3399;52.530;13.304;2023-12-22T05:30:08;2.00;;;1.50;;
6723;SDS011;3399;52.530;13.304;2023-12-22T05:32:33;3.73;;;1.20;;
6723;SDS011;3399;52.530;13.304;2023-12-22T05:34:59;6.30;;;1.57;;
6723;SDS011;3399;52.530;13.304;2023-12-22T05:37:24;4.07;;;1.93;;
6723;SDS011;3399;52.530;13.304;2023-12-22T05:39:50;5.77;;;1.23;;
6723;SDS011;3399;52.530;13.304;2023-12-22T05:42:15;3.30;;;1.70;;
6723;SDS011;3399;52.530;13.304;2023-12-22T05:44:41;8.17;;;1.10;;
6723;SDS011;3399;52.530;13.304;2023-12-22T05:47:07;5.17;;;1.20;;
6723;SDS011;3399;52.530;13.304;2023-12-22T05:49:33;2.43;;;1.40;;
6723;SDS011;3399;52.530;13.304;2023-12-22T05:51:59;2.80;;;1.30;;
6723;SDS011;3399;52.530;13.304;2023-12-22T05:54:24;1.10;;;0.90;;
6723;SDS011;3399;52.530;13.304;2023-12-22T05:56:50;4.80;;;1.40;;
6723;SDS011;3399;52.530;13.304;2023-12-22T05:59:16;6.27;;;1.23;;
6723;SDS011;3399;52.530;13.304;2023-12-22T06:01:42;3.47;;;0.87;;
6723;SDS011;3399;52.530;13.304;2023-12-22T06:04:08;4.47;;;0.77;;
6723;SDS011;3399;52.530;13.304;2023-12-22T06:06:33;4.43;;;1.37;;
6723;SDS011;3399;52.530;13.304;2023-12-22T06:09:00;4.33;;;1.40;;
6723;SDS011;3399;52.530;13.304;2023-12-22T06:11:26;3.83;;;1.10;;
6723;SDS011;3399;52.530;13.304;2023-12-22T06:13:52;6.97;;;1.97;;
6723;SDS011;3399;52.530;13.304;2023-12-22T06:16:17;4.13;;;1.27;;
6723;SDS011;3399;52.530;13.304;2023-12-22T06:18:43;4.60;;;1.47;;
6723;SDS011;3399;52.530;13.304;2023-12-22T06:21:09;7.37;;;1.33;;
6723;SDS011;3399;52.530;13.304;2023-12-22T06:23:35;9.30;;;1.50;;
6723;SDS011;3399;52.530;13.304;2023-12-22T06:26:01;0.93;;;0.50;;
6723;SDS011;3399;52.530;13.304;2023-12-22T06:28:27;2.77;;;0.70;;
6723;SDS011;3399;52.530;13.304;2023-12-22T06:30:53;2.60;;;0.70;;
6723;SDS011;3399;52.530;13.304;2023-12-22T06:33:19;2.50;;;0.80;;
6723;SDS011;3399;52.530;13.304;2023-12-22T06:35:45;3.23;;;0.70;;
6723;SDS011;3399;52.530;13.304;2023-12-22T06:38:10;2.30;;;0.70;;
6723;SDS011;3399;52.530;13.304;2023-12-22T06:40:36;5.70;;;1.50;;
6723;SDS011;3399;52.530;13.304;2023-12-22T06:43:03;5.40;;;0.83;;
6723;SDS011;3399;52.530;13.304;2023-12-22T06:45:29;2.50;;;1.07;;
6723;SDS011;3399;52.530;13.304;2023-12-22T06:47:57;4.67;;;1.67;;
6723;SDS011;3399;52.530;13.304;2023-12-22T06:50:22;3.03;;;1.33;;
6723;SDS011;3399;52.530;13.304;2023-12-22T06:52:48;3.30;;;1.17;;
6723;SDS011;3399;52.530;13.304;2023-12-22T06:55:14;1.87;;;1.17;;
6723;SDS011;3399;52.530;13.304;2023-12-22T06:57:40;12.83;;;1.80;;
6723;SDS011;3399;52.530;13.304;2023-12-22T07:00:06;2.33;;;0.97;;
6723;SDS011;3399;52.530;13.304;2023-12-22T07:02:32;7.10;;;1.50;;
6723;SDS011;3399;52.530;13.304;2023-12-22T07:07:37;3.90;;;1.50;;
6723;SDS011;3399;52.530;13.304;2023-12-22T07:10:02;3.17;;;1.17;;
6723;SDS011;3399;52.530;13.304;2023-12-22T07:12:28;6.27;;;1.33;;
6723;SDS011;3399;52.530;13.304;2023-12-22T07:14:54;4.10;;;1.27;;
6723;SDS011;3399;52.530;13.304;2023-12-22T07:17:19;3.00;;;1.40;;
6723;SDS011;3399;52.530;13.304;2023-12-22T07:19:45;3.40;;;0.97;;
6723;SDS011;3399;52.530;13.304;2023-12-22T07:22:11;6.47;;;1.27;;
6723;SDS011;3399;52.530;13.304;2023-12-22T07:24:36;4.27;;;1.30;;
6723;SDS011;3399;52.530;13.304;2023-12-22T07:27:02;2.27;;;0.93;;
6723;SDS011;3399;52.530;13.304;2023-12-22T07:29:28;5.80;;;1.10;;
6723;SDS011;3399;52.530;13.304;2023-12-22T07:31:54;12.47;;;2.70;;
6723;SDS011;3399;52.530;13.304;2023-12-22T07:34:19;5.33;;;1.10;;
6723;SDS011;3399;52.530;13.304;2023-12-22T07:36:47;3.13;;;1.50;;
6723;SDS011;3399;52.530;13.304;2023-12-22T07:39:12;3.07;;;1.60;;
6723;SDS011;3399;52.530;13.304;2023-12-22T07:41:39;4.73;;;1.40;;
6723;SDS011;3399;52.530;13.304;2023-12-22T07:44:05;3.77;;;1.67;;
6723;SDS011;3399;52.530;13.304;2023-12-22T07:46:30;7.13;;;1.33;;
6723;SDS011;3399;52.530;13.304;2023-12-22T07:48:56;3.33;;;1.57;;
6723;SDS011;3399;52.530;13.304;2023-12-22T07:51:21;2.67;;;1.20;;
6723;SDS011;3399;52.530;13.304;2023-12-22T07:53:47;4.37;;;1.93;;
6723;SDS011;3399;52.530;13.304;2023-12-22T07:56:12;5.63;;;1.23;;
6723;SDS011;3399;52.530;13.304;2023-12-22T07:58:38;2.90;;;1.40;;
6723;SDS011;3399;52.530;13.304;2023-12-22T08:01:04;5.77;;;2.27;;
6723;SDS011;3399;52.530;13.304;2023-12-22T08:03:30;4.03;;;1.43;;
6723;SDS011;3399;52.530;13.304;2023-12-22T08:05:56;6.83;;;1.27;;
6723;SDS011;3399;52.530;13.304;2023-12-22T08:08:22;6.10;;;2.00;;
6723;SDS011;3399;52.530;13.304;2023-12-22T08:10:47;3.17;;;1.17;;
6723;SDS011;3399;52.530;13.304;2023-12-22T08:13:13;2.17;;;1.10;;
6723;SDS011;3399;52.530;13.304;2023-12-22T08:15:38;4.33;;;1.50;;
6723;SDS011;3399;52.530;13.304;2023-12-22T08:18:06;3.50;;;1.20;;
6723;SDS011;3399;52.530;13.304;2023-12-22T08:20:32;2.70;;;0.93;;
6723;SDS011;3399;52.530;13.304;2023-12-22T08:22:58;3.03;;;0.90;;
6723;SDS011;3399;52.530;13.304;2023-12-22T08:25:23;4.10;;;1.13;;
6723;SDS011;3399;52.530;13.304;2023-12-22T08:27:49;1.80;;;0.80;;
6723;SDS011;3399;52.530;13.304;2023-12-22T08:30:14;1.53;;;0.93;;
6723;SDS011;3399;52.530;13.304;2023-12-22T08:32:40;5.13;;;1.63;;
6723;SDS011;3399;52.530;13.304;2023-12-22T08:35:05;2.63;;;1.17;;
6723;SDS011;3399;52.530;13.304;2023-12-22T08:37:32;1.50;;;0.90;;
6723;SDS011;3399;52.530;13.304;2023-12-22T08:39:57;3.33;;;1.30;;
6723;SDS011;3399;52.530;13.304;2023-12-22T08:42:23;5.70;;;1.53;;
6723;SDS011;3399;52.530;13.304;2023-12-22T08:44:50;3.00;;;1.27;;
6723;SDS011;3399;52.530;13.304;2023-12-22T08:47:15;2.43;;;1.07;;
6723;SDS011;3399;52.530;13.304;2023-12-22T08:49:41;5.60;;;1.60;;
6723;SDS011;3399;52.530;13.304;2023-12-22T08:52:07;8.10;;;2.00;;
6723;SDS011;3399;52.530;13.304;2023-12-22T08:54:32;4.97;;;2.00;;
6723;SDS011;3399;52.530;13.304;2023-12-22T08:56:59;2.00;;;1.23;;
6723;SDS011;3399;52.530;13.304;2023-12-22T08:59:24;7.20;;;1.60;;
6723;SDS011;3399;52.530;13.304;2023-12-22T09:01:50;1.63;;;0.87;;
6723;SDS011;3399;52.530;13.304;2023-12-22T09:04:15;5.07;;;1.63;;
6723;SDS011;3399;52.530;13.304;2023-12-22T09:06:41;7.73;;;2.27;;
6723;SDS011;3399;52.530;13.304;2023-12-22T09:09:07;5.47;;;1.90;;
6723;SDS011;3399;52.530;13.304;2023-12-22T09:11:34;11.53;;;2.00;;
6723;SDS011;3399;52.530;13.304;2023-12-22T09:14:00;5.63;;;1.70;;
6723;SDS011;3399;52.530;13.304;2023-12-22T09:16:25;8.53;;;1.63;;
6723;SDS011;3399;52.530;13.304;2023-12-22T09:18:51;5.87;;;1.70;;
6723;SDS011;3399;52.530;13.304;2023-12-22T09:21:17;4.10;;;2.00;;
6723;SDS011;3399;52.530;13.304;2023-12-22T09:23:43;7.73;;;2.40;;
6723;SDS011;3399;52.530;13.304;2023-12-22T09:26:11;16.03;;;2.33;;
6723;SDS011;3399;52.530;13.304;2023-12-22T09:28:37;7.00;;;1.67;;
6723;SDS011;3399;52.530;13.304;2023-12-22T09:31:03;9.03;;;2.87;;
6723;SDS011;3399;52.530;13.304;2023-12-22T09:33:30;5.60;;;2.10;;
6723;SDS011;3399;52.530;13.304;2023-12-22T09:35:56;4.77;;;1.87;;
6723;SDS011;3399;52.530;13.304;2023-12-22T09:38:22;9.33;;;2.10;;
6723;SDS011;3399;52.530;13.304;2023-12-22T09:40:48;5.90;;;1.63;;
6723;SDS011;3399;52.530;13.304;2023-12-22T09:43:18;19.60;;;2.27;;
6723;SDS011;3399;52.530;13.304;2023-12-22T09:45:47;9.00;;;1.97;;
6723;SDS011;3399;52.530;13.304;2023-12-22T09:48:15;4.87;;;2.23;;
6723;SDS011;3399;52.530;13.304;2023-12-22T09:50:46;5.27;;;1.87;;
6723;SDS011;3399;52.530;13.304;2023-12-22T09:53:12;10.00;;;1.60;;
6723;SDS011;3399;52.530;13.304;2023-12-22T09:55:44;6.57;;;2.00;;
6723;SDS011;3399;52.530;13.304;2023-12-22T09:58:11;9.93;;;2.60;;
6723;SDS011;3399;52.530;13.304;2023-12-22T10:00:38;6.87;;;2.07;;
6723;SDS011;3399;52.530;13.304;2023-12-22T10:03:05;11.07;;;2.30;;
6723;SDS011;3399;52.530;13.304;2023-12-22T10:05:32;12.50;;;3.07;;
6723;SDS011;3399;52.530;13.304;2023-12-22T10:08:00;7.30;;;1.80;;
6723;SDS011;3399;52.530;13.304;2023-12-22T10:10:29;11.53;;;2.77;;
6723;SDS011;3399;52.530;13.304;2023-12-22T10:12:55;12.13;;;3.27;;
6723;SDS011;3399;52.530;13.304;2023-12-22T10:15:22;9.47;;;2.57;;
6723;SDS011;3399;52.530;13.304;2023-12-22T10:17:54;13.03;;;3.50;;
6723;SDS011;3399;52.530;13.304;2023-12-22T10:20:25;13.80;;;3.10;;
6723;SDS011;3399;52.530;13.304;2023-12-22T10:22:53;8.30;;;1.97;;
6723;SDS011;3399;52.530;13.304;2023-12-22T10:25:19;12.30;;;3.23;;
6723;SDS011;3399;52.530;13.304;2023-12-22T10:27:45;8.57;;;2.80;;
6723;SDS011;3399;52.530;13.304;2023-12-22T10:30:10;5.07;;;2.63;;
6723;SDS011;3399;52.530;13.304;2023-12-22T10:32:40;4.83;;;2.33;;
6723;SDS011;3399;52.530;13.304;2023-12-22T10:35:08;5.70;;;2.13;;
6723;SDS011;3399;52.530;13.304;2023-12-22T10:37:34;8.43;;;2.60;;
6723;SDS011;3399;52.530;13.304;2023-12-22T10:40:02;8.00;;;2.60;;
6723;SDS011;3399;52.530;13.304;2023-12-22T10:42:29;11.13;;;2.30;;
6723;SDS011;3399;52.530;13.304;2023-12-22T10:44:55;7.87;;;3.77;;
6723;SDS011;3399;52.530;13.304;2023-12-22T10:47:22;12.70;;;2.60;;
6723;SDS011;3399;52.530;13.304;2023-12-22T10:49:48;9.93;;;3.63;;
6723;SDS011;3399;52.530;13.304;2023-12-22T10:52:17;7.73;;;2.77;;
6723;SDS011;3399;52.530;13.304;2023-12-22T10:54:43;9.23;;;2.93;;
6723;SDS011;3399;52.530;13.304;2023-12-22T10:57:10;9.83;;;2.47;;
6723;SDS011;3399;52.530;13.304;2023-12-22T10:59:37;10.20;;;2.43;;
6723;SDS011;3399;52.530;13.304;2023-12-22T11:02:09;14.27;;;3.77;;
6723;SDS011;3399;52.530;13.304;2023-12-22T11:04:47;8.50;;;2.70;;
6723;SDS011;3399;52.530;13.304;2023-12-22T11:07:22;13.53;;;2.87;;
6723;SDS011;3399;52.530;13.304;2023-12-22T11:09:50;6.93;;;2.30;;
6723;SDS011;3399;52.530;13.304;2023-12-22T11:12:17;6.87;;;1.90;;
6723;SDS011;3399;52.530;13.304;2023-12-22T11:14:45;6.27;;;1.77;;
6723;SDS011;3399;52.530;13.304;2023-12-22T11:17:15;9.37;;;1.87;;
6723;SDS011;3399;52.530;13.304;2023-12-22T11:19:44;5.27;;;2.23;;
6723;SDS011;3399;52.530;13.304;2023-12-22T11:22:12;14.70;;;3.03;;
6723;SDS011;3399;52.530;13.304;2023-12-22T11:24:39;5.97;;;1.83;;
6723;SDS011;3399;52.530;13.304;2023-12-22T11:27:06;7.73;;;2.80;;
6723;SDS011;3399;52.530;13.304;2023-12-22T11:29:33;10.90;;;2.63;;
6723;SDS011;3399;52.530;13.304;2023-12-22T11:32:00;5.87;;;2.10;;
6723;SDS011;3399;52.530;13.304;2023-12-22T11:34:30;6.87;;;1.87;;
6723;SDS011;3399;52.530;13.304;2023-12-22T11:36:57;4.43;;;1.57;;
6723;SDS011;3399;52.530;13.304;2023-12-22T11:39:25;2.83;;;1.50;;
6723;SDS011;3399;52.530;13.304;2023-12-22T11:41:50;8.17;;;2.30;;
6723;SDS011;3399;52.530;13.304;2023-12-22T11:44:19;6.00;;;1.97;;
6723;SDS011;3399;52.530;13.304;2023-12-22T11:46:45;8.70;;;2.60;;
6723;SDS011;3399;52.530;13.304;2023-12-22T11:49:12;7.83;;;1.93;;
6723;SDS011;3399;52.530;13.304;2023-12-22T11:51:37;10.20;;;2.37;;
6723;SDS011;3399;52.530;13.304;2023-12-22T11:54:04;6.77;;;2.37;;
6723;SDS011;3399;52.530;13.304;2023-12-22T11:57:28;7.67;;;2.37;;
6723;SDS011;3399;52.530;13.304;2023-12-22T11:59:58;8.03;;;1.93;;
6723;SDS011;3399;52.530;13.304;2023-12-22T12:02:35;8.80;;;1.77;;
6723;SDS011;3399;52.530;13.304;2023-12-22T12:05:01;8.37;;;1.87;;
6723;SDS011;3399;52.530;13.304;2023-12-22T12:10:10;11.83;;;2.00;;
6723;SDS011;3399;52.530;13.304;2023-12-22T12:13:08;8.87;;;2.00;;
6723;SDS011;3399;52.530;13.304;2023-12-22T12:15:35;2.87;;;1.83;;
6723;SDS011;3399;52.530;13.304;2023-12-22T12:18:02;6.83;;;1.60;;
6723;SDS011;3399;52.530;13.304;2023-12-22T12:20:28;7.77;;;2.10;;
6723;SDS011;3399;52.530;13.304;2023-12-22T12:22:53;8.37;;;2.17;;
6723;SDS011;3399;52.530;13.304;2023-12-22T12:25:21;7.00;;;1.67;;
6723;SDS011;3399;52.530;13.304;2023-12-22T12:27:50;11.87;;;1.73;;
6723;SDS011;3399;52.530;13.304;2023-12-22T12:30:25;7.87;;;2.07;;
6723;SDS011;3399;52.530;13.304;2023-12-22T12:32:51;8.27;;;2.37;;
6723;SDS011;3399;52.530;13.304;2023-12-22T12:35:18;9.47;;;1.93;;
6723;SDS011;3399;52.530;13.304;2023-12-22T12:37:44;6.40;;;2.50;;
6723;SDS011;3399;52.530;13.304;2023-12-22T12:40:11;8.07;;;2.27;;
6723;SDS011;3399;52.530;13.304;2023-12-22T12:42:37;6.57;;;2.20;;
6723;SDS011;3399;52.530;13.304;2023-12-22T12:45:07;7.77;;;1.90;;
6723;SDS011;3399;52.530;13.304;2023-12-22T12:47:33;6.47;;;2.10;;
6723;SDS011;3399;52.530;13.304;2023-12-22T12:49:59;9.37;;;1.97;;
6723;SDS011;3399;52.530;13.304;2023-12-22T12:52:25;7.33;;;2.23;;
6723;SDS011;3399;52.530;13.304;2023-12-22T12:54:52;6.50;;;2.47;;
6723;SDS011;3399;52.530;13.304;2023-12-22T12:57:18;7.23;;;2.43;;
6723;SDS011;3399;52.530;13.304;2023-12-22T12:59:45;3.03;;;1.53;;
6723;SDS011;3399;52.530;13.304;2023-12-22T13:02:12;12.53;;;2.87;;
6723;SDS011;3399;52.530;13.304;2023-12-22T13:04:38;6.93;;;3.03;;
6723;SDS011;3399;52.530;13.304;2023-12-22T13:07:03;8.10;;;3.40;;
6723;SDS011;3399;52.530;13.304;2023-12-22T13:09:33;6.57;;;2.30;;
6723;SDS011;3399;52.530;13.304;2023-12-22T13:11:59;8.03;;;1.83;;
6723;SDS011;3399;52.530;13.304;2023-12-22T13:14:25;8.67;;;2.70;;
6723;SDS011;3399;52.530;13.304;2023-12-22T13:16:51;4.53;;;1.87;;
6723;SDS011;3399;52.530;13.304;2023-12-22T13:19:19;7.60;;;2.10;;
6723;SDS011;3399;52.530;13.304;2023-12-22T13:21:54;9.97;;;2.73;;
6723;SDS011;3399;52.530;13.304;2023-12-22T13:24:20;6.77;;;1.97;;
6723;SDS011;3399;52.530;13.304;2023-12-22T13:26:47;4.57;;;2.17;;
6723;SDS011;3399;52.530;13.304;2023-12-22T13:29:23;8.90;;;2.87;;
6723;SDS011;3399;52.530;13.304;2023-12-22T13:31:48;4.03;;;1.87;;
6723;SDS011;3399;52.530;13.304;2023-12-22T13:34:14;7.50;;;2.57;;
6723;SDS011;3399;52.530;13.304;2023-12-22T13:36:40;8.17;;;2.57;;
6723;SDS011;3399;52.530;13.304;2023-12-22T13:39:07;6.23;;;2.27;;
6723;SDS011;3399;52.530;13.304;2023-12-22T13:41:41;12.17;;;2.80;;
6723;SDS011;3399;52.530;13.304;2023-12-22T13:44:10;13.17;;;2.87;;
6723;SDS011;3399;52.530;13.304;2023-12-22T13:46:36;9.67;;;2.50;;
6723;SDS011;3399;52.530;13.304;2023-12-22T13:49:05;9.10;;;2.77;;
6723;SDS011;3399;52.530;13.304;2023-12-22T13:51:39;8.27;;;2.27;;
6723;SDS011;3399;52.530;13.304;2023-12-22T13:54:07;13.70;;;4.03;;
6723;SDS011;3399;52.530;13.304;2023-12-22T13:56:34;7.27;;;2.23;;
6723;SDS011;3399;52.530;13.304;2023-12-22T13:59:05;9.37;;;2.50;;
6723;SDS011;3399;52.530;13.304;2023-12-22T14:01:31;9.67;;;2.10;;
6723;SDS011;3399;52.530;13.304;2023-12-22T14:03:57;11.67;;;2.80;;
6723;SDS011;3399;52.530;13.304;2023-12-22T14:06:26;10.67;;;2.90;;
6723;SDS011;3399;52.530;13.304;2023-12-22T14:08:55;7.93;;;2.30;;
6723;SDS011;3399;52.530;13.304;2023-12-22T14:11:21;12.50;;;3.13;;
6723;SDS011;3399;52.530;13.304;2023-12-22T14:13:47;7.03;;;2.20;;
6723;SDS011;3399;52.530;13.304;2023-12-22T14:16:13;13.57;;;2.63;;
6723;SDS011;3399;52.530;13.304;2023-12-22T14:18:40;9.00;;;2.10;;
6723;SDS011;3399;52.530;13.304;2023-12-22T14:21:06;6.27;;;2.13;;
6723;SDS011;3399;52.530;13.304;2023-12-22T14:23:31;7.20;;;1.33;;
6723;SDS011;3399;52.530;13.304;2023-12-22T14:25:57;4.43;;;1.93;;
6723;SDS011;3399;52.530;13.304;2023-12-22T14:28:22;4.93;;;1.93;;
6723;SDS011;3399;52.530;13.304;2023-12-22T14:30:48;5.97;;;1.43;;
6723;SDS011;3399;52.530;13.304;2023-12-22T14:33:14;3.23;;;1.50;;
6723;SDS011;3399;52.530;13.304;2023-12-22T14:35:40;8.60;;;2.03;;
6723;SDS011;3399;52.530;13.304;2023-12-22T14:38:05;6.47;;;1.70;;
6723;SDS011;3399;52.530;13.304;2023-12-22T14:40:31;4.83;;;1.33;;
6723;SDS011;3399;52.530;13.304;2023-12-22T14:42:57;5.63;;;1.37;;
6723;SDS011;3399;52.530;13.304;2023-12-22T14:45:24;9.37;;;1.57;;
6723;SDS011;3399;52.530;13.304;2023-12-22T14:47:50;4.93;;;1.40;;
6723;SDS011;3399;52.530;13.304;2023-12-22T14:50:16;8.07;;;1.93;;
6723;SDS011;3399;52.530;13.304;2023-12-22T14:52:42;4.83;;;1.60;;
6723;SDS011;3399;52.530;13.304;2023-12-22T14:55:08;4.90;;;1.43;;
6723;SDS011;3399;52.530;13.304;2023-12-22T14:57:33;7.13;;;1.97;;
6723;SDS011;3399;52.530;13.304;2023-12-22T14:59:59;11.73;;;1.70;;
6723;SDS011;3399;52.530;13.304;2023-12-22T15:02:24;2.07;;;1.30;;
6723;SDS011;3399;52.530;13.304;2023-12-22T15:04:50;5.23;;;1.80;;
6723;SDS011;3399;52.530;13.304;2023-12-22T15:07:16;4.83;;;1.77;;